createdAt,value
2022-08-24T00:00:29.776Z,100374.02
2022-08-24T00:03:06.412Z,100366.23
2022-08-24T00:05:36.068Z,100366.42
2022-08-24T00:08:06.600Z,100366.65
2022-08-24T00:10:37.007Z,100366.41
2022-08-24T00:13:07.481Z,100368.20
2022-08-24T00:15:37.809Z,100369.75
2022-08-24T00:18:08.584Z,100368.91
2022-08-24T00:20:40.031Z,100371.45
2022-08-24T00:23:12.870Z,100369.93
2022-08-24T00:25:43.156Z,100365.63
2022-08-24T00:28:13.745Z,100367.73
2022-08-24T00:30:44.171Z,100365.48
2022-08-24T00:33:13.835Z,100362.66
2022-08-24T00:35:44.915Z,100362.00
2022-08-24T00:38:15.941Z,100358.44
2022-08-24T00:40:49.023Z,100357.08
2022-08-24T00:43:22.598Z,100360.10
2022-08-24T00:46:03.582Z,100364.84
2022-08-24T00:48:35.599Z,100362.63
2022-08-24T00:51:15.333Z,100363.92
2022-08-24T00:53:50.415Z,100367.02
2022-08-24T00:56:35.694Z,100367.60
2022-08-24T00:59:12.988Z,100367.46
2022-08-24T01:01:44.737Z,100371.95
2022-08-24T01:04:24.490Z,100372.30
2022-08-24T01:06:54.539Z,100374.15
2022-08-24T01:09:29.394Z,100374.52
2022-08-24T01:12:01.766Z,100373.23
2022-08-24T01:14:32.206Z,100375.20
2022-08-24T01:17:22.375Z,100375.10
2022-08-24T01:19:56.267Z,100374.96
2022-08-24T01:23:08.254Z,100374.02
2022-08-24T01:25:42.114Z,100376.58
2022-08-24T01:28:25.188Z,100374.04
2022-08-24T01:30:58.955Z,100376.21
2022-08-24T01:33:32.273Z,100377.77
2022-08-24T01:36:30.579Z,100372.61
2022-08-24T01:39:08.236Z,100373.23
2022-08-24T01:41:37.168Z,100376.74
2022-08-24T01:44:07.877Z,100376.65
2022-08-24T01:46:40.576Z,100377.11
2022-08-24T01:49:11.650Z,100373.10
2022-08-24T01:51:41.735Z,100373.48
2022-08-24T01:54:12.723Z,100379.30
2022-08-24T01:56:44.507Z,100378.81
2022-08-24T01:59:16.595Z,100375.27
2022-08-24T02:01:53.252Z,100373.02
2022-08-24T02:04:22.970Z,100371.55
2022-08-24T02:06:54.998Z,100372.61
2022-08-24T02:09:33.293Z,100374.39
2022-08-24T02:12:04.833Z,100371.89
2022-08-24T02:14:37.086Z,100372.95
2022-08-24T02:17:08.884Z,100379.86
2022-08-24T02:19:41.250Z,100380.92
2022-08-24T02:22:12.932Z,100379.67
2022-08-24T02:24:46.912Z,100377.19
2022-08-24T02:27:16.813Z,100378.28
2022-08-24T02:29:50.517Z,100380.52
2022-08-24T02:32:23.186Z,100377.16
2022-08-24T02:34:54.978Z,100377.30
2022-08-24T02:37:25.771Z,100378.23
2022-08-24T02:39:55.901Z,100379.69
2022-08-24T02:42:27.125Z,100382.13
2022-08-24T02:44:56.413Z,100391.96
2022-08-24T02:47:32.810Z,100390.45
2022-08-24T02:50:16.532Z,100392.95
2022-08-24T02:52:46.643Z,100392.75
2022-08-24T02:55:19.798Z,100392.27
2022-08-24T02:57:52.353Z,100394.20
2022-08-24T03:00:25.306Z,100395.23
2022-08-24T03:02:58.205Z,100396.61
2022-08-24T03:05:28.634Z,100398.69
2022-08-24T03:07:59.917Z,100402.85
2022-08-24T03:10:33.637Z,100403.55
2022-08-24T03:13:03.970Z,100404.30
2022-08-24T03:15:36.190Z,100407.77
2022-08-24T03:18:05.904Z,100410.25
2022-08-24T03:20:37.870Z,100411.30
2022-08-24T03:23:07.227Z,100411.40
2022-08-24T03:25:37.717Z,100415.60
2022-08-24T03:28:10.998Z,100417.13
2022-08-24T03:30:46.850Z,100415.05
2022-08-24T03:33:21.789Z,100417.11
2022-08-24T03:35:52.853Z,100417.77
2022-08-24T03:38:23.691Z,100420.69
2022-08-24T03:40:56.712Z,100422.34
2022-08-24T03:43:49.126Z,100424.83
2022-08-24T03:46:25.538Z,100425.26
2022-08-24T03:49:00.415Z,100429.75
2022-08-24T03:51:32.068Z,100433.10
2022-08-24T03:54:03.422Z,100436.30
2022-08-24T03:56:35.770Z,100436.59
2022-08-24T03:59:08.449Z,100439.33
2022-08-24T04:01:41.273Z,100441.40
2022-08-24T04:04:14.623Z,100445.33
2022-08-24T04:06:47.222Z,100446.77
2022-08-24T04:09:19.714Z,100447.63
2022-08-24T04:11:52.073Z,100446.80
2022-08-24T04:14:28.012Z,100446.79
2022-08-24T04:17:19.333Z,100448.86
2022-08-24T04:19:59.187Z,100450.90
2022-08-24T04:22:39.454Z,100451.16
2022-08-24T04:25:11.437Z,100454.09
2022-08-24T04:27:41.854Z,100459.00
2022-08-24T04:30:14.632Z,100459.39
2022-08-24T04:33:17.111Z,100468.52
2022-08-24T04:51:45.753Z,100469.52
2022-08-24T04:55:14.084Z,100472.70
2022-08-24T05:06:08.714Z,100483.17
2022-08-24T05:13:05.203Z,100489.66
2022-08-24T05:16:34.865Z,100498.30
2022-08-24T05:27:19.098Z,100507.73
2022-08-24T05:41:22.737Z,100506.36
2022-08-24T05:44:13.569Z,100499.45
2022-08-24T05:47:34.515Z,100498.89
2022-08-24T05:50:53.758Z,100506.73
2022-08-24T05:53:43.968Z,100510.39
2022-08-24T05:56:38.222Z,100511.91
2022-08-24T05:59:47.696Z,100508.47
2022-08-24T06:02:53.062Z,100509.75
2022-08-24T06:06:23.473Z,100511.39
2022-08-24T06:09:34.565Z,100516.52
2022-08-24T06:12:45.712Z,100512.77
2022-08-24T06:15:23.334Z,100513.05
2022-08-24T06:18:01.355Z,100514.16
2022-08-24T06:20:41.377Z,100510.16
2022-08-24T06:23:29.986Z,100512.31
2022-08-24T06:26:24.602Z,100514.04
2022-08-24T06:28:54.944Z,100512.33
2022-08-24T06:31:25.583Z,100512.92
2022-08-24T06:34:04.135Z,100509.47
2022-08-24T06:37:49.131Z,100511.00
2022-08-24T06:40:21.693Z,100506.20
2022-08-24T06:42:53.938Z,100509.98
2022-08-24T06:45:37.058Z,100505.88
2022-08-24T06:48:09.671Z,100498.42
2022-08-24T06:50:41.875Z,100498.45
2022-08-24T06:53:15.250Z,100497.27
2022-08-24T06:55:50.007Z,100508.04
2022-08-24T06:58:21.050Z,100509.25
2022-08-24T07:00:51.933Z,100508.36
2022-08-24T07:03:25.547Z,100507.06
2022-08-24T07:06:05.187Z,100510.04
2022-08-24T07:08:45.164Z,100512.40
2022-08-24T07:11:21.246Z,100512.34
2022-08-24T07:13:51.787Z,100513.68
2022-08-24T07:16:22.726Z,100513.48
2022-08-24T07:18:57.249Z,100508.33
2022-08-24T07:21:27.261Z,100510.23
2022-08-24T07:23:59.720Z,100510.55
2022-08-24T07:26:31.830Z,100506.47
2022-08-24T07:29:25.018Z,100504.70
2022-08-24T07:32:01.909Z,100510.33
2022-08-24T07:34:39.912Z,100509.92
2022-08-24T07:37:10.027Z,100508.02
2022-08-24T07:39:42.778Z,100506.44
2022-08-24T07:42:18.845Z,100507.82
2022-08-24T07:44:54.697Z,100509.39
2022-08-24T07:47:38.164Z,100508.09
2022-08-24T07:50:19.122Z,100501.77
2022-08-24T07:52:49.550Z,100498.30
2022-08-24T07:55:20.868Z,100498.45
2022-08-24T07:57:51.619Z,100498.20
2022-08-24T08:00:23.929Z,100494.80
2022-08-24T08:02:59.417Z,100491.88
2022-08-24T08:05:33.654Z,100500.40
2022-08-24T08:08:07.042Z,100499.38
2022-08-24T08:10:39.208Z,100501.17
2022-08-24T08:13:12.093Z,100502.86
2022-08-24T08:15:42.693Z,100506.45
2022-08-24T08:18:14.088Z,100507.48
2022-08-24T08:20:47.430Z,100514.93
2022-08-24T08:23:38.302Z,100516.42
2022-08-24T08:26:25.089Z,100508.91
2022-08-24T08:29:10.826Z,100513.13
2022-08-24T08:31:43.178Z,100511.35
2022-08-24T08:34:15.445Z,100512.55
2022-08-24T08:36:48.998Z,100508.24
2022-08-24T08:39:23.727Z,100512.00
2022-08-24T08:42:07.778Z,100511.99
2022-08-24T08:44:50.504Z,100513.57
2022-08-24T08:50:56.487Z,100514.79
2022-08-24T08:53:42.958Z,100512.56
2022-08-24T08:56:40.514Z,100516.97
2022-08-24T08:59:26.292Z,100519.99
2022-08-24T09:02:36.230Z,100524.67
2022-08-24T09:05:31.410Z,100525.70
2022-08-24T09:08:36.868Z,100523.73
2022-08-24T09:12:00.244Z,100526.56
2022-08-24T09:14:58.403Z,100522.79
2022-08-24T09:18:03.754Z,100526.48
2022-08-24T09:20:51.569Z,100522.23
2022-08-24T09:23:29.948Z,100530.48
2022-08-24T09:26:21.567Z,100532.52
2022-08-24T09:29:25.179Z,100527.40
2022-08-24T09:32:02.000Z,100531.40
2022-08-24T09:34:38.785Z,100531.95
2022-08-24T09:37:40.487Z,100529.26
2022-08-24T09:40:28.587Z,100530.77
2022-08-24T09:43:24.812Z,100532.30
2022-08-24T09:45:58.231Z,100534.01
2022-08-24T09:49:06.333Z,100533.80
2022-08-24T09:52:00.656Z,100538.92
2022-08-24T09:55:01.678Z,100540.04
2022-08-24T09:58:00.620Z,100540.30
2022-08-24T10:00:50.683Z,100542.40
2022-08-24T10:03:42.671Z,100543.95
2022-08-24T10:06:29.237Z,100536.39
2022-08-24T10:09:29.626Z,100534.74
2022-08-24T10:12:05.214Z,100535.14
2022-08-24T10:14:53.461Z,100532.36
2022-08-24T10:17:41.185Z,100533.76
2022-08-24T10:20:29.304Z,100531.51
2022-08-24T10:23:18.806Z,100530.27
2022-08-24T10:26:14.146Z,100526.76
2022-08-24T10:29:04.734Z,100522.09
2022-08-24T10:31:39.024Z,100518.99
2022-08-24T10:34:36.918Z,100519.64
2022-08-24T10:37:51.067Z,100524.36
2022-08-24T10:41:16.018Z,100521.02
2022-08-24T10:44:09.347Z,100523.59
2022-08-24T10:46:49.821Z,100529.02
2022-08-24T10:49:38.632Z,100530.13
2022-08-24T10:52:27.518Z,100525.73
2022-08-24T10:54:59.697Z,100523.95
2022-08-24T10:57:37.259Z,100523.41
2022-08-24T11:00:23.008Z,100524.19
2022-08-24T11:03:15.578Z,100522.70
2022-08-24T11:05:49.723Z,100520.31
2022-08-24T11:08:28.458Z,100518.11
2022-08-24T11:11:14.800Z,100519.67
2022-08-24T11:14:30.747Z,100522.66
2022-08-24T11:17:23.648Z,100517.73
2022-08-24T11:19:57.853Z,100521.23
2022-08-24T11:22:51.905Z,100524.41
2022-08-24T11:25:33.977Z,100528.73
2022-08-24T11:28:11.287Z,100528.52
2022-08-24T11:30:41.953Z,100531.53
2022-08-24T11:33:32.044Z,100532.64
2022-08-24T11:36:02.805Z,100527.55
2022-08-24T11:38:54.618Z,100534.75
2022-08-24T11:41:35.638Z,100534.11
2022-08-24T11:44:34.577Z,100533.15
2022-08-24T11:47:36.618Z,100530.66
2022-08-24T11:50:24.072Z,100533.78
2022-08-24T11:53:18.999Z,100534.44
2022-08-24T11:56:18.737Z,100535.67
2022-08-24T11:58:59.967Z,100540.84
2022-08-24T12:01:46.311Z,100536.36
2022-08-24T12:04:19.059Z,100536.65
2022-08-24T12:07:27.708Z,100538.75
2022-08-24T12:10:06.884Z,100541.66
2022-08-24T12:12:50.995Z,100537.04
2022-08-24T12:16:01.757Z,100538.39
2022-08-24T12:18:46.111Z,100533.95
2022-08-24T12:21:19.907Z,100532.46
2022-08-24T12:23:54.975Z,100530.17
2022-08-24T12:27:02.029Z,100533.39
2022-08-24T12:29:55.264Z,100536.47
2022-08-24T12:32:28.766Z,100537.73
2022-08-24T12:35:30.603Z,100536.61
2022-08-24T12:38:09.540Z,100538.41
2022-08-24T12:41:14.540Z,100534.34
2022-08-24T12:44:02.883Z,100536.61
2022-08-24T12:46:36.433Z,100534.97
2022-08-24T12:49:33.704Z,100536.98
2022-08-24T13:34:19.110Z,100543.67
2022-08-24T13:37:24.595Z,100542.20
2022-08-24T13:40:18.720Z,100543.05
2022-08-24T13:43:09.142Z,100546.98
2022-08-24T13:46:27.611Z,100546.95
2022-08-24T13:49:16.294Z,100546.60
2022-08-24T13:52:08.354Z,100544.01
2022-08-24T13:55:03.368Z,100540.88
2022-08-24T13:57:54.261Z,100543.06
2022-08-24T14:00:47.958Z,100543.96
2022-08-24T14:03:23.366Z,100535.66
2022-08-24T14:06:13.525Z,100539.45
2022-08-24T14:09:20.373Z,100535.29
2022-08-24T14:12:17.013Z,100536.73
2022-08-24T14:15:16.237Z,100535.81
2022-08-24T14:18:21.821Z,100538.89
2022-08-24T14:53:42.715Z,100517.90
2022-08-24T15:17:24.451Z,100517.10
2022-08-24T16:32:23.354Z,100538.21
2022-08-24T18:31:53.708Z,100646.69
2022-08-24T18:35:00.223Z,100644.48
2022-08-24T18:45:21.752Z,100648.31
2022-08-24T18:48:15.190Z,100653.73
2022-08-24T18:51:47.774Z,100651.35
2022-08-24T18:54:59.443Z,100650.65
2022-08-24T18:58:22.342Z,100650.74
2022-08-24T19:01:22.412Z,100656.70
2022-08-24T19:04:52.968Z,100657.20
2022-08-24T19:07:54.113Z,100662.83
2022-08-24T19:32:13.923Z,100668.08
2022-08-24T19:35:20.973Z,100669.98
2022-08-24T19:38:45.490Z,100674.08
2022-08-24T19:41:39.930Z,100671.17
2022-08-24T19:47:43.131Z,100668.63
2022-08-24T19:50:36.199Z,100666.96
2022-08-24T19:53:13.346Z,100673.88
2022-08-24T19:55:50.337Z,100672.05
2022-08-24T19:58:54.021Z,100674.14
2022-08-24T20:02:07.814Z,100675.95
2022-08-24T20:04:44.675Z,100675.59
2022-08-24T20:07:55.461Z,100671.77
2022-08-24T20:10:28.928Z,100669.59
2022-08-24T20:13:30.647Z,100666.15
2022-08-24T20:16:34.580Z,100668.31
2022-08-24T20:19:17.772Z,100661.23
2022-08-24T20:22:28.983Z,100660.88
2022-08-24T20:26:09.416Z,100665.02
2022-08-24T20:29:00.608Z,100662.67
2022-08-24T20:34:55.676Z,100659.52
2022-08-24T20:37:31.757Z,100661.96
2022-08-24T20:40:28.986Z,100660.00
2022-08-24T20:43:18.706Z,100662.36
2022-08-24T20:45:55.822Z,100663.77
2022-08-24T20:48:34.152Z,100669.30
2022-08-24T20:51:44.908Z,100673.77
2022-08-24T20:54:42.056Z,100671.52
2022-08-24T20:57:51.022Z,100670.80
2022-08-24T21:01:16.906Z,100681.06
2022-08-24T21:04:27.186Z,100685.52
2022-08-24T21:08:04.797Z,100693.29
2022-08-24T21:11:36.750Z,100693.90
2022-08-24T21:14:33.345Z,100694.61
2022-08-24T21:17:45.506Z,100698.10
2022-08-24T21:21:03.322Z,100705.25
2022-08-24T21:24:08.418Z,100712.13
2022-08-24T21:27:06.269Z,100718.28
2022-08-24T21:30:22.989Z,100716.88
2022-08-24T21:33:55.144Z,100717.11
2022-08-24T21:53:24.538Z,100734.00
2022-08-24T21:56:40.757Z,100767.38
2022-08-24T21:59:12.387Z,100807.57
2022-08-24T22:02:13.472Z,100808.64
2022-08-24T22:05:11.102Z,100802.91
2022-08-24T22:08:22.146Z,100813.84
2022-08-24T22:11:35.747Z,100811.13
2022-08-24T22:14:48.112Z,100819.36
2022-08-24T22:17:22.935Z,100815.80
2022-08-24T22:20:32.930Z,100815.02
2022-08-24T22:23:45.108Z,100817.75
2022-08-24T22:26:54.781Z,100818.23
2022-08-24T22:30:00.425Z,100827.46
2022-08-24T22:32:38.283Z,100835.71
2022-08-24T22:35:36.173Z,100832.24
2022-08-24T22:42:27.161Z,100813.45
2022-08-24T22:45:49.058Z,100808.48
2022-08-24T22:49:03.317Z,100801.46
2022-08-24T22:52:22.338Z,100807.52
2022-08-24T22:55:43.153Z,100806.18
2022-08-24T22:59:18.170Z,100777.98
2022-08-24T23:02:36.575Z,100751.48
2022-08-24T23:09:56.088Z,100735.15
2022-08-24T23:13:20.836Z,100724.09
2022-08-24T23:16:31.999Z,100708.62
2022-08-24T23:19:47.962Z,100684.01
2022-08-24T23:26:56.442Z,100660.85
2022-08-24T23:37:28.911Z,100670.80
2022-08-24T23:40:49.912Z,100667.94
2022-08-24T23:47:59.928Z,100670.44
2022-08-24T23:51:40.224Z,100673.37
2022-08-24T23:54:53.771Z,100669.16
2022-08-24T23:58:56.643Z,100666.49
